Time;durP1;ratioP1;P1;durP2;ratioP2;P2;SDS_P1;SDS_P2;PMS_P1;PMS_P2;Temp;Humidity;BMP_temperature;BMP_pressure;BME280_temperature;BME280_humidity;BME280_pressure;Samples;Min_cycle;Max_cycle;Signal;HPM_P1;HPM_P2
2023/09/09 04:02:29;;;;;;;5.50;4.97;;;15.50;99.90;;;;;;4973599;23;20483;-72
2023/09/09 04:04:56;;;;;;;5.83;5.30;;;15.40;99.90;;;;;;4923981;29;20832;-72
2023/09/09 04:07:23;;;;;;;6.23;5.80;;;15.40;99.90;;;;;;4928428;29;20497;-71
2023/09/09 04:09:49;;;;;;;6.10;5.60;;;15.40;99.90;;;;;;4933854;29;20468;-71
2023/09/09 04:12:16;;;;;;;5.70;5.27;;;15.40;99.90;;;;;;4917543;29;20530;-72
2023/09/09 04:14:43;;;;;;;5.90;5.50;;;15.40;99.90;;;;;;4915123;29;20466;-71
2023/09/09 04:17:10;;;;;;;6.93;5.33;;;15.40;99.90;;;;;;4907326;29;20471;-72
2023/09/09 04:19:38;;;;;;;6.80;5.77;;;15.40;99.90;;;;;;4905607;29;20814;-72
2023/09/09 04:22:05;;;;;;;6.60;4.90;;;15.40;99.90;;;;;;4911109;29;20589;-72
2023/09/09 04:24:31;;;;;;;7.23;5.67;;;15.40;99.90;;;;;;4911791;29;20478;-72
2023/09/09 04:26:58;;;;;;;4.70;4.33;;;15.40;99.90;;;;;;4914165;29;20518;-70
2023/09/09 04:29:25;;;;;;;5.77;5.27;;;15.40;99.90;;;;;;4956205;23;20861;-69
2023/09/09 04:31:51;;;;;;;5.10;4.80;;;15.40;99.90;;;;;;4950955;28;20470;-69
2023/09/09 04:34:18;;;;;;;4.90;4.50;;;15.40;99.90;;;;;;4938078;28;21143;-69
2023/09/09 04:36:46;;;;;;;5.33;4.83;;;15.40;99.90;;;;;;4940191;29;20457;-69
2023/09/09 04:39:15;;;;;;;6.17;5.67;;;15.40;99.90;;;;;;4935471;29;20478;-69
2023/09/09 04:41:42;;;;;;;4.30;4.00;;;15.30;99.90;;;;;;4947717;29;20460;-69
2023/09/09 04:44:09;;;;;;;5.27;4.90;;;15.30;99.90;;;;;;4943972;28;20456;-69
2023/09/09 04:46:36;;;;;;;6.33;5.73;;;15.40;99.90;;;;;;4934362;29;20496;-69
2023/09/09 04:49:03;;;;;;;7.40;6.17;;;15.30;99.90;;;;;;4933036;29;20497;-69
2023/09/09 04:51:31;;;;;;;5.27;4.73;;;15.40;99.90;;;;;;4934676;28;20482;-69
2023/09/09 04:53:59;;;;;;;6.27;5.77;;;15.30;99.90;;;;;;4938297;28;20529;-69
2023/09/09 04:56:25;;;;;;;7.17;4.93;;;15.30;99.90;;;;;;4937517;29;20466;-69
2023/09/09 04:58:52;;;;;;;6.00;5.50;;;15.40;99.90;;;;;;4937292;29;20607;-70
2023/09/09 05:01:19;;;;;;;8.17;6.20;;;15.30;99.90;;;;;;4946166;29;20493;-70
2023/09/09 05:03:46;;;;;;;5.87;5.47;;;15.30;99.90;;;;;;4938565;28;20465;-69
2023/09/09 05:06:12;;;;;;;7.90;6.33;;;15.40;99.90;;;;;;4936898;29;21004;-70
2023/09/09 05:08:39;;;;;;;5.90;5.17;;;15.40;99.90;;;;;;4933809;29;20485;-69
2023/09/09 05:11:07;;;;;;;5.97;5.57;;;15.40;99.90;;;;;;4933695;29;20476;-69
2023/09/09 05:13:34;;;;;;;5.73;5.23;;;15.40;99.90;;;;;;4934116;29;20470;-69
2023/09/09 05:16:00;;;;;;;5.20;4.70;;;15.40;99.90;;;;;;4934422;29;20481;-69
2023/09/09 05:18:27;;;;;;;6.43;5.93;;;15.40;99.90;;;;;;4936858;28;20489;-69
2023/09/09 05:20:54;;;;;;;6.27;5.67;;;15.50;99.90;;;;;;4938458;29;20864;-69
2023/09/09 05:23:20;;;;;;;6.93;5.90;;;15.50;99.90;;;;;;4934261;29;20474;-69
2023/09/09 05:25:47;;;;;;;5.73;5.30;;;15.50;99.90;;;;;;4942039;29;20468;-69
2023/09/09 05:28:15;;;;;;;6.47;5.93;;;15.60;99.90;;;;;;4943013;28;20549;-69
2023/09/09 05:30:42;;;;;;;5.97;5.53;;;15.70;99.90;;;;;;4937440;29;20461;-69
2023/09/09 05:33:08;;;;;;;6.37;5.80;;;15.70;99.90;;;;;;4949343;29;21270;-69
2023/09/09 05:35:35;;;;;;;5.07;4.73;;;15.70;99.90;;;;;;4941513;28;20461;-69
2023/09/09 05:38:02;;;;;;;5.83;5.27;;;15.80;99.90;;;;;;4935321;29;20469;-69
2023/09/09 05:40:29;;;;;;;5.97;5.47;;;15.80;99.90;;;;;;4941239;29;20467;-70
2023/09/09 05:42:55;;;;;;;6.70;6.03;;;15.80;99.90;;;;;;4933557;28;20465;-70
2023/09/09 05:45:24;;;;;;;7.03;6.37;;;15.90;99.90;;;;;;4933553;29;20472;-70
2023/09/09 05:47:50;;;;;;;5.77;5.27;;;15.90;99.90;;;;;;4935483;29;20490;-70
2023/09/09 05:50:17;;;;;;;5.30;4.90;;;15.90;99.90;;;;;;4937302;29;20560;-70
2023/09/09 05:52:44;;;;;;;5.33;4.97;;;16.00;99.90;;;;;;4943473;29;20547;-70
2023/09/09 05:55:10;;;;;;;5.60;5.20;;;16.00;99.90;;;;;;4945781;28;20469;-70
2023/09/09 05:57:38;;;;;;;5.13;4.73;;;16.10;99.90;;;;;;4950495;29;20461;-69
2023/09/09 06:00:06;;;;;;;5.87;5.40;;;16.10;99.90;;;;;;4944399;28;20551;-69
2023/09/09 06:02:34;;;;;;;6.00;5.50;;;16.10;99.90;;;;;;4940591;29;20477;-70
2023/09/09 06:05:00;;;;;;;8.50;6.37;;;16.20;99.90;;;;;;4944418;29;20469;-70
2023/09/09 06:07:27;;;;;;;5.40;4.93;;;16.30;99.90;;;;;;4946279;28;20498;-70
2023/09/09 06:09:54;;;;;;;5.00;4.63;;;16.30;99.90;;;;;;4946870;29;20490;-70
2023/09/09 06:12:20;;;;;;;5.80;5.27;;;16.30;99.90;;;;;;4947164;28;20485;-69
2023/09/09 06:14:47;;;;;;;6.30;5.77;;;16.40;99.90;;;;;;4945966;28;20481;-70
2023/09/09 06:17:14;;;;;;;5.63;5.23;;;16.40;99.90;;;;;;4943943;29;20935;-70
2023/09/09 06:19:43;;;;;;;7.27;5.20;;;16.50;99.90;;;;;;4948020;28;20490;-69
2023/09/09 06:22:10;;;;;;;6.37;5.80;;;16.60;99.90;;;;;;4941849;29;20497;-69
2023/09/09 06:24:36;;;;;;;6.80;5.67;;;16.60;99.90;;;;;;4945582;29;20463;-70
2023/09/09 06:27:03;;;;;;;5.07;4.77;;;16.80;99.90;;;;;;4945298;29;20492;-70
2023/09/09 06:29:30;;;;;;;5.83;5.10;;;16.80;99.90;;;;;;4944297;29;20901;-70
2023/09/09 06:31:57;;;;;;;5.60;5.13;;;16.80;99.90;;;;;;4945498;29;20462;-70
2023/09/09 06:34:24;;;;;;;6.13;5.67;;;16.90;99.90;;;;;;4942308;29;20475;-70
2023/09/09 06:36:52;;;;;;;5.87;5.37;;;17.00;99.90;;;;;;4952099;29;20493;-70
2023/09/09 06:39:18;;;;;;;6.23;5.73;;;17.00;99.90;;;;;;4949120;28;20480;-70
2023/09/09 06:41:45;;;;;;;5.37;5.03;;;17.10;99.90;;;;;;4945238;29;20461;-70
2023/09/09 06:44:12;;;;;;;6.50;6.00;;;17.10;99.90;;;;;;4946400;28;20553;-70
2023/09/09 06:46:39;;;;;;;7.23;6.03;;;17.20;99.90;;;;;;4945277;29;21007;-70
2023/09/09 06:49:05;;;;;;;5.93;5.40;;;17.30;99.90;;;;;;4943879;29;20484;-70
2023/09/09 06:51:32;;;;;;;7.20;5.50;;;17.40;99.90;;;;;;4943869;29;20813;-70
2023/09/09 06:54:00;;;;;;;17.03;6.00;;;17.40;99.90;;;;;;4935479;29;20464;-70
2023/09/09 06:56:27;;;;;;;4.80;4.50;;;17.50;99.90;;;;;;4943928;29;20472;-70
2023/09/09 06:58:53;;;;;;;6.30;5.70;;;17.60;99.90;;;;;;4946327;29;20843;-70
2023/09/09 07:01:20;;;;;;;6.60;6.00;;;17.70;99.90;;;;;;4943600;29;20479;-70
2023/09/09 07:03:47;;;;;;;5.50;5.10;;;17.80;99.90;;;;;;4942187;29;21286;-70
2023/09/09 07:06:13;;;;;;;5.33;4.60;;;17.90;99.90;;;;;;4936416;28;20466;-70
2023/09/09 07:08:42;;;;;;;5.97;5.57;;;17.90;99.90;;;;;;4939585;29;20599;-70
2023/09/09 07:11:10;;;;;;;6.50;5.90;;;18.10;99.90;;;;;;4946450;28;20469;-69
2023/09/09 07:13:36;;;;;;;4.87;4.37;;;18.20;99.90;;;;;;4949266;28;20479;-70
2023/09/09 07:16:03;;;;;;;6.37;5.93;;;18.20;99.90;;;;;;4946450;28;20479;-69
2023/09/09 07:18:30;;;;;;;5.80;5.33;;;18.40;99.90;;;;;;4946202;28;20496;-69
2023/09/09 07:20:57;;;;;;;5.00;4.60;;;18.40;99.90;;;;;;4938930;28;20481;-69
2023/09/09 07:23:24;;;;;;;6.20;5.60;;;18.50;99.90;;;;;;4942078;29;20525;-69
2023/09/09 07:25:51;;;;;;;6.33;5.97;;;18.60;99.90;;;;;;4937903;29;20469;-69
2023/09/09 07:28:19;;;;;;;5.00;4.70;;;18.70;99.90;;;;;;4941332;28;20493;-70
2023/09/09 07:30:46;;;;;;;5.40;5.00;;;18.80;99.90;;;;;;4944771;28;20469;-70
2023/09/09 07:33:12;;;;;;;5.37;4.97;;;18.80;99.90;;;;;;4941709;29;20845;-68
2023/09/09 07:35:39;;;;;;;5.23;4.90;;;19.00;99.90;;;;;;4940693;28;20469;-69
2023/09/09 07:38:06;;;;;;;5.57;5.07;;;19.00;99.90;;;;;;4945312;28;20469;-70
2023/09/09 07:40:33;;;;;;;5.30;4.50;;;19.20;99.90;;;;;;4943533;29;20556;-69
2023/09/09 07:43:01;;;;;;;5.27;4.83;;;19.20;99.90;;;;;;4947670;28;20489;-68
2023/09/09 07:45:29;;;;;;;5.53;4.70;;;19.30;99.90;;;;;;4946012;28;20472;-68
2023/09/09 07:47:56;;;;;;;4.83;4.43;;;19.40;99.90;;;;;;4941852;28;20500;-69
2023/09/09 07:50:23;;;;;;;4.40;4.10;;;19.50;99.90;;;;;;4942611;28;20501;-70
2023/09/09 07:52:49;;;;;;;4.77;4.50;;;19.50;99.90;;;;;;4953911;28;20470;-69
2023/09/09 07:55:16;;;;;;;4.97;4.63;;;19.60;99.90;;;;;;4946784;29;20470;-69
2023/09/09 07:57:43;;;;;;;5.67;5.20;;;19.70;99.90;;;;;;4945390;28;20464;-69
2023/09/09 08:00:10;;;;;;;4.90;4.50;;;19.80;99.90;;;;;;4941604;29;20486;-69
2023/09/09 08:02:38;;;;;;;5.30;4.97;;;20.00;99.90;;;;;;4942648;29;20484;-69
2023/09/09 08:05:06;;;;;;;5.23;4.83;;;20.20;99.90;;;;;;4942418;28;20459;-69
2023/09/09 08:07:33;;;;;;;4.20;3.90;;;20.30;99.90;;;;;;4940225;29;20492;-69
2023/09/09 08:10:00;;;;;;;5.20;4.80;;;20.30;99.90;;;;;;4946904;29;20492;-70
2023/09/09 08:12:27;;;;;;;5.97;5.33;;;20.40;99.90;;;;;;4941856;29;20475;-69
2023/09/09 08:15:04;;;;;;;5.93;5.40;;;20.50;99.90;;;;;;4943965;29;20977;-70
2023/09/09 08:17:31;;;;;;;5.90;5.40;;;20.70;99.90;;;;;;4940795;28;20597;-70
2023/09/09 08:19:59;;;;;;;5.67;5.23;;;20.70;99.90;;;;;;4942037;28;20855;-70
2023/09/09 08:22:28;;;;;;;6.10;4.27;;;20.90;99.90;;;;;;4943218;29;20515;-69
2023/09/09 08:24:55;;;;;;;4.80;4.40;;;21.00;99.90;;;;;;4943425;28;20474;-70
2023/09/09 08:27:21;;;;;;;5.30;4.90;;;21.10;99.90;;;;;;4935346;29;20500;-70
2023/09/09 08:29:48;;;;;;;7.77;4.67;;;21.30;99.90;;;;;;4942244;29;20496;-69
2023/09/09 08:32:15;;;;;;;4.60;4.27;;;21.50;99.90;;;;;;4940835;29;20469;-69
2023/09/09 08:34:42;;;;;;;4.40;4.10;;;21.60;99.90;;;;;;4941740;29;20462;-70
2023/09/09 08:37:11;;;;;;;4.57;4.37;;;21.80;99.90;;;;;;4938056;29;20465;-70
2023/09/09 08:39:37;;;;;;;4.93;4.63;;;21.90;99.90;;;;;;4946109;29;20485;-70
2023/09/09 08:42:16;;;;;;;4.67;4.37;;;21.90;99.90;;;;;;4945145;28;20987;-70
2023/09/09 08:44:59;;;;;;;4.27;4.00;;;22.00;99.90;;;;;;4940226;28;20805;-69
2023/09/09 08:47:29;;;;;;;4.80;4.50;;;22.00;99.90;;;;;;4942095;28;20549;-69
2023/09/09 08:49:59;;;;;;;5.30;4.80;;;22.20;99.90;;;;;;4937480;28;20584;-70
2023/09/09 08:52:28;;;;;;;4.17;3.77;;;22.30;99.90;;;;;;4947185;28;20469;-69
2023/09/09 08:54:55;;;;;;;4.27;4.07;;;22.40;99.90;;;;;;4935749;28;20548;-70
2023/09/09 08:57:21;;;;;;;4.80;4.50;;;22.50;99.90;;;;;;4942476;29;20465;-70
2023/09/09 08:59:48;;;;;;;4.27;4.07;;;22.50;99.90;;;;;;4936441;28;20544;-69
2023/09/09 09:02:16;;;;;;;4.73;4.53;;;22.60;99.90;;;;;;4934156;29;20961;-70
2023/09/09 09:04:44;;;;;;;4.60;4.40;;;22.70;99.90;;;;;;4937534;29;20542;-70
2023/09/09 09:07:11;;;;;;;4.43;4.33;;;22.70;99.90;;;;;;4936560;28;20497;-70
2023/09/09 09:09:39;;;;;;;5.87;5.27;;;22.80;99.90;;;;;;4941869;29;20494;-70
2023/09/09 09:12:08;;;;;;;5.30;4.90;;;23.10;99.90;;;;;;4945591;29;20475;-70
2023/09/09 09:14:35;;;;;;;4.70;4.30;;;23.10;99.90;;;;;;4940485;28;20489;-69
2023/09/09 09:17:04;;;;;;;4.57;4.17;;;23.10;99.90;;;;;;4938588;29;20485;-70
2023/09/09 09:19:31;;;;;;;5.27;4.87;;;23.20;99.90;;;;;;4940855;29;20593;-70
2023/09/09 09:22:00;;;;;;;4.60;4.40;;;23.30;99.90;;;;;;4933035;29;20471;-70
2023/09/09 09:24:27;;;;;;;4.40;4.10;;;23.30;99.90;;;;;;4940762;29;20983;-71
2023/09/09 09:26:56;;;;;;;4.10;3.70;;;23.30;99.90;;;;;;4942727;28;20468;-71
2023/09/09 09:29:23;;;;;;;4.67;4.40;;;23.50;99.90;;;;;;4938742;29;20533;-70
2023/09/09 09:31:52;;;;;;;4.00;3.80;;;23.70;99.90;;;;;;4940540;29;20478;-70
2023/09/09 09:34:19;;;;;;;5.20;4.70;;;23.90;99.90;;;;;;4937165;29;20559;-70
2023/09/09 09:36:47;;;;;;;5.17;4.77;;;24.00;99.90;;;;;;4945144;29;20496;-70
2023/09/09 09:39:15;;;;;;;5.50;5.20;;;23.90;99.90;;;;;;4944893;29;20489;-70
2023/09/09 09:41:43;;;;;;;4.03;3.83;;;24.00;99.90;;;;;;4947405;29;20572;-70
2023/09/09 09:44:20;;;;;;;4.67;4.47;;;24.00;99.90;;;;;;4941814;29;20473;-70
2023/09/09 09:47:00;;;;;;;4.27;4.17;;;24.10;99.90;;;;;;4945092;29;20461;-70
2023/09/09 09:49:34;;;;;;;4.63;4.43;;;24.10;99.90;;;;;;4936376;29;20532;-70
2023/09/09 09:52:01;;;;;;;4.27;4.13;;;24.20;99.90;;;;;;4944046;29;20619;-70
2023/09/09 09:54:27;;;;;;;5.50;5.10;;;24.40;99.90;;;;;;4941376;28;20470;-70
2023/09/09 09:56:56;;;;;;;5.00;4.70;;;24.60;99.90;;;;;;4942544;29;20541;-69
2023/09/09 09:59:25;;;;;;;4.87;4.47;;;24.60;99.90;;;;;;4950689;28;20481;-70
2023/09/09 10:01:53;;;;;;;4.63;4.37;;;24.80;99.90;;;;;;4939525;28;20462;-70
2023/09/09 10:04:21;;;;;;;4.10;3.50;;;25.00;99.90;;;;;;4946818;28;20821;-70
2023/09/09 10:06:51;;;;;;;3.97;3.67;;;25.20;99.90;;;;;;4945263;29;20476;-70
2023/09/09 10:09:26;;;;;;;4.00;3.80;;;25.20;99.90;;;;;;4936050;28;20492;-70
2023/09/09 10:11:59;;;;;;;4.30;4.20;;;25.00;99.90;;;;;;4943512;28;20481;-69
2023/09/09 10:14:28;;;;;;;4.70;4.40;;;25.10;99.90;;;;;;4942486;28;20476;-68
2023/09/09 10:16:55;;;;;;;4.87;4.40;;;25.20;99.90;;;;;;4941864;29;20475;-68
2023/09/09 10:19:24;;;;;;;5.10;4.70;;;25.30;99.90;;;;;;4943207;29;20485;-67
2023/09/09 10:21:51;;;;;;;5.40;5.00;;;25.40;99.90;;;;;;4938084;29;20477;-68
2023/09/09 10:24:19;;;;;;;4.37;4.17;;;25.30;99.90;;;;;;4935767;29;20897;-68
2023/09/09 10:26:49;;;;;;;4.00;3.90;;;25.40;99.90;;;;;;4934140;29;20986;-68
2023/09/09 10:29:18;;;;;;;5.00;4.70;;;25.60;99.90;;;;;;4940367;29;20503;-68
2023/09/09 10:31:47;;;;;;;5.37;4.97;;;25.90;99.90;;;;;;4951116;28;20539;-69
2023/09/09 10:34:16;;;;;;;4.83;4.50;;;26.00;99.90;;;;;;4936024;28;20473;-68
2023/09/09 10:36:44;;;;;;;3.73;3.60;;;26.20;99.90;;;;;;4934156;29;20476;-69
2023/09/09 10:39:14;;;;;;;4.90;4.60;;;26.20;99.90;;;;;;4934199;28;20492;-68
2023/09/09 10:41:41;;;;;;;4.20;3.90;;;26.10;99.90;;;;;;4931678;29;20477;-68
2023/09/09 10:44:08;;;;;;;3.83;3.73;;;26.20;99.90;;;;;;4934246;29;20487;-68
2023/09/09 10:46:37;;;;;;;4.30;4.10;;;26.40;99.90;;;;;;4936447;29;20473;-69
2023/09/09 10:49:05;;;;;;;4.70;4.50;;;26.60;99.90;;;;;;4936443;29;20565;-68
2023/09/09 10:51:44;;;;;;;3.80;3.53;;;26.80;99.90;;;;;;4944303;28;20812;-69
2023/09/09 10:54:14;;;;;;;4.20;3.87;;;27.00;99.90;;;;;;4940569;29;20537;-69
2023/09/09 10:56:51;;;;;;;3.87;3.77;;;27.00;99.90;;;;;;4939354;28;20506;-70
2023/09/09 10:59:20;;;;;;;3.80;3.60;;;26.80;99.90;;;;;;4950286;29;20493;-70
2023/09/09 11:01:48;;;;;;;3.87;3.73;;;26.80;99.90;;;;;;4946869;28;21012;-70
2023/09/09 11:04:24;;;;;;;3.83;3.53;;;26.80;99.90;;;;;;4950886;28;20489;-70
2023/09/09 11:07:07;;;;;;;4.13;3.93;;;26.80;99.90;;;;;;4943461;29;20461;-70
2023/09/09 11:09:34;;;;;;;4.60;4.30;;;26.80;99.90;;;;;;4946349;28;20492;-70
2023/09/09 11:12:11;;;;;;;5.00;4.60;;;26.90;99.90;;;;;;4945048;28;20837;-70
2023/09/09 11:14:41;;;;;;;4.40;4.10;;;26.70;99.90;;;;;;4942336;29;20465;-69
2023/09/09 11:17:10;;;;;;;4.23;4.03;;;26.60;99.90;;;;;;4944057;29;20469;-70
2023/09/09 11:19:40;;;;;;;3.93;3.73;;;26.90;99.90;;;;;;4946009;28;20476;-70
2023/09/09 11:22:08;;;;;;;4.40;4.20;;;27.20;99.90;;;;;;4938738;28;20466;-69
2023/09/09 11:24:35;;;;;;;3.90;3.70;;;27.40;99.90;;;;;;4946451;28;20854;-69
2023/09/09 11:27:03;;;;;;;3.77;3.57;;;27.40;99.90;;;;;;4944577;28;20464;-68
2023/09/09 11:29:31;;;;;;;4.23;4.03;;;27.30;99.90;;;;;;4943671;29;20504;-70
2023/09/09 11:31:58;;;;;;;3.87;3.67;;;27.20;99.90;;;;;;4946206;28;20552;-68
2023/09/09 11:34:29;;;;;;;3.73;3.60;;;27.30;99.90;;;;;;4936302;28;20473;-69
2023/09/09 11:36:57;;;;;;;4.30;4.10;;;27.40;99.90;;;;;;4934139;29;20477;-69
2023/09/09 11:39:24;;;;;;;3.40;3.20;;;27.50;99.90;;;;;;4934251;29;20866;-70
2023/09/09 11:41:50;;;;;;;4.60;4.23;;;27.60;99.90;;;;;;4934319;29;20565;-69
2023/09/09 11:44:17;;;;;;;3.70;3.50;;;27.70;99.90;;;;;;4940771;29;20843;-70
2023/09/09 11:46:45;;;;;;;3.60;3.50;;;27.70;99.90;;;;;;4934586;29;20792;-70
2023/09/09 11:49:13;;;;;;;3.90;3.70;;;27.60;99.90;;;;;;4938103;29;20525;-70
2023/09/09 11:51:40;;;;;;;4.50;4.10;;;27.50;99.90;;;;;;4934318;29;20474;-70
2023/09/09 11:54:18;;;;;;;1.87;1.87;;;27.50;99.90;;;;;;4941131;29;20477;-71
2023/09/09 11:56:45;;;;;;;3.20;3.03;;;27.50;99.90;;;;;;4934182;29;20477;-71
2023/09/09 11:59:12;;;;;;;3.23;3.13;;;27.70;99.90;;;;;;4948441;29;20497;-71
2023/09/09 12:01:43;;;;;;;3.33;3.23;;;27.70;99.90;;;;;;4937118;29;20473;-70
2023/09/09 12:04:10;;;;;;;2.47;2.47;;;27.60;99.90;;;;;;4933989;29;20501;-70
2023/09/09 12:06:39;;;;;;;2.93;2.80;;;27.60;99.90;;;;;;4935993;29;20862;-71
2023/09/09 12:09:08;;;;;;;3.53;3.23;;;27.60;99.90;;;;;;4942694;29;20492;-71
2023/09/09 12:11:35;;;;;;;3.70;3.50;;;27.60;99.90;;;;;;4943418;28;20481;-71
2023/09/09 12:14:02;;;;;;;3.33;3.13;;;27.60;99.90;;;;;;4932948;29;20498;-71
2023/09/09 12:16:31;;;;;;;3.33;3.07;;;27.50;99.90;;;;;;4937907;29;20469;-70
2023/09/09 12:18:58;;;;;;;3.07;2.90;;;27.60;99.90;;;;;;4938531;29;20481;-70
2023/09/09 12:21:24;;;;;;;2.77;2.67;;;27.60;99.90;;;;;;4944709;28;20952;-71
2023/09/09 12:23:57;;;;;;;2.97;2.77;;;27.70;99.90;;;;;;4945630;28;20461;-70
2023/09/09 12:26:26;;;;;;;2.60;2.50;;;27.80;99.90;;;;;;4945924;28;20872;-71
2023/09/09 12:29:06;;;;;;;2.67;2.67;;;28.20;99.90;;;;;;4953528;28;20531;-71
2023/09/09 12:31:34;;;;;;;3.40;3.30;;;28.10;99.90;;;;;;4953379;28;20951;-69
2023/09/09 12:34:01;;;;;;;2.47;2.47;;;28.00;99.90;;;;;;4941730;28;20580;-70
2023/09/09 12:36:33;;;;;;;2.90;2.70;;;28.00;99.90;;;;;;4943451;29;20477;-70
2023/09/09 12:39:00;;;;;;;2.60;2.60;;;27.90;99.90;;;;;;4939710;29;20541;-70
2023/09/09 12:41:28;;;;;;;2.50;2.40;;;28.00;99.90;;;;;;4947539;29;20488;-70
2023/09/09 12:43:54;;;;;;;2.33;2.33;;;28.00;99.90;;;;;;4942781;29;20478;-70
2023/09/09 12:46:27;;;;;;;3.20;3.10;;;28.10;99.90;;;;;;4945706;29;20477;-70
2023/09/09 12:48:56;;;;;;;2.90;2.80;;;28.10;99.90;;;;;;4950981;29;20494;-71
2023/09/09 12:51:24;;;;;;;2.50;2.50;;;28.20;99.90;;;;;;4945633;29;20465;-70
2023/09/09 12:53:52;;;;;;;2.50;2.40;;;28.20;99.90;;;;;;4936767;29;20473;-70
2023/09/09 12:56:19;;;;;;;2.43;2.43;;;28.20;99.90;;;;;;4933354;28;20536;-70
2023/09/09 12:58:47;;;;;;;2.63;2.53;;;28.30;99.90;;;;;;4935523;29;20543;-67
2023/09/09 13:01:15;;;;;;;2.67;2.57;;;28.30;99.90;;;;;;4938945;29;20912;-71
2023/09/09 13:03:42;;;;;;;2.53;2.43;;;28.40;99.90;;;;;;4933064;28;20560;-70
2023/09/09 13:06:09;;;;;;;2.97;2.87;;;28.40;99.90;;;;;;4933050;28;20481;-72
2023/09/09 13:08:37;;;;;;;3.07;2.90;;;28.40;99.90;;;;;;4944016;28;20500;-72
2023/09/09 13:11:04;;;;;;;3.43;3.27;;;28.40;99.90;;;;;;4937812;29;20469;-72
2023/09/09 13:13:31;;;;;;;2.60;2.60;;;28.40;99.90;;;;;;4934733;29;20810;-72
2023/09/09 13:15:59;;;;;;;2.40;2.30;;;28.30;99.90;;;;;;4934757;28;20481;-72
2023/09/09 13:18:26;;;;;;;2.80;2.70;;;28.30;99.90;;;;;;4941694;29;20501;-72
2023/09/09 13:20:53;;;;;;;2.70;2.60;;;28.30;99.90;;;;;;4944487;29;20522;-72
2023/09/09 13:23:20;;;;;;;2.73;2.63;;;28.40;99.90;;;;;;4934823;28;20806;-72
2023/09/09 13:25:46;;;;;;;2.70;2.60;;;28.30;99.90;;;;;;4942199;29;20466;-72
2023/09/09 13:28:13;;;;;;;3.27;2.93;;;28.40;99.90;;;;;;4943436;29;20812;-72
2023/09/09 13:30:40;;;;;;;2.03;2.03;;;28.30;99.90;;;;;;4933166;29;20478;-72
2023/09/09 13:33:08;;;;;;;3.30;3.00;;;28.30;99.90;;;;;;4936317;29;20469;-73
2023/09/09 13:35:35;;;;;;;2.20;2.20;;;28.30;99.90;;;;;;4932785;29;20470;-71
2023/09/09 13:38:04;;;;;;;2.47;2.37;;;28.30;99.90;;;;;;4940300;29;20560;-72
2023/09/09 13:40:30;;;;;;;2.27;2.27;;;28.30;99.90;;;;;;4937465;29;20470;-71
2023/09/09 13:42:57;;;;;;;2.50;2.40;;;28.20;99.90;;;;;;4940281;29;20473;-71
2023/09/09 13:45:24;;;;;;;3.23;3.03;;;28.30;99.90;;;;;;4939531;29;20474;-71
2023/09/09 13:47:51;;;;;;;2.47;2.47;;;28.30;99.90;;;;;;4934860;29;20811;-71
2023/09/09 13:50:19;;;;;;;2.13;2.13;;;28.30;99.90;;;;;;4932685;28;20500;-72
2023/09/09 13:52:45;;;;;;;2.70;2.60;;;28.30;99.90;;;;;;4946412;29;20560;-73
2023/09/09 13:55:12;;;;;;;2.00;2.00;;;28.30;99.90;;;;;;4936719;28;20480;-71
2023/09/09 13:57:39;;;;;;;2.10;2.10;;;28.40;99.90;;;;;;4935666;29;20474;-72
2023/09/09 14:00:07;;;;;;;2.23;2.20;;;28.40;99.90;;;;;;4933370;29;20500;-71
2023/09/09 14:02:34;;;;;;;2.43;2.43;;;28.40;99.90;;;;;;4939882;28;20477;-71
2023/09/09 14:05:00;;;;;;;1.80;1.80;;;28.40;99.90;;;;;;4944805;29;20469;-72
2023/09/09 14:07:28;;;;;;;2.30;2.30;;;28.30;99.90;;;;;;4932654;29;20473;-71
2023/09/09 14:09:55;;;;;;;2.83;2.73;;;28.30;99.90;;;;;;4938826;29;20966;-71
2023/09/09 14:12:22;;;;;;;2.50;2.40;;;28.40;99.90;;;;;;4941865;28;20472;-71
2023/09/09 14:14:49;;;;;;;3.00;2.90;;;28.40;99.90;;;;;;4937416;29;20469;-72
2023/09/09 14:17:16;;;;;;;2.90;2.80;;;28.40;99.90;;;;;;4940213;29;20551;-71
2023/09/09 14:19:43;;;;;;;2.40;2.20;;;28.40;99.90;;;;;;4938065;29;20499;-72
2023/09/09 14:22:10;;;;;;;2.90;2.80;;;28.40;99.90;;;;;;4937759;28;20469;-72
2023/09/09 14:24:38;;;;;;;2.20;2.20;;;28.40;99.90;;;;;;4939157;29;20528;-72
2023/09/09 14:27:06;;;;;;;2.20;2.10;;;28.40;99.90;;;;;;4941909;29;20502;-72
2023/09/09 14:29:33;;;;;;;2.10;2.10;;;28.40;99.90;;;;;;4934369;29;20488;-72
2023/09/09 14:31:59;;;;;;;2.27;2.27;;;28.30;99.90;;;;;;4942583;29;20962;-71
2023/09/09 14:34:26;;;;;;;2.67;2.57;;;28.40;99.90;;;;;;4938322;29;20883;-71
2023/09/09 14:36:53;;;;;;;2.93;2.83;;;28.30;99.90;;;;;;4935289;29;20476;-72
2023/09/09 14:39:20;;;;;;;2.60;2.60;;;28.40;99.90;;;;;;4938949;28;20485;-71
2023/09/09 14:41:48;;;;;;;2.70;2.53;;;28.30;99.90;;;;;;4940756;29;20465;-72
2023/09/09 14:44:14;;;;;;;2.70;2.60;;;28.30;99.90;;;;;;4944452;29;20913;-72
2023/09/09 14:46:41;;;;;;;2.73;2.63;;;28.30;99.90;;;;;;4942292;28;20473;-72
2023/09/09 14:49:08;;;;;;;3.90;2.43;;;28.30;99.90;;;;;;4942026;28;20892;-71
2023/09/09 14:51:35;;;;;;;2.30;2.30;;;28.30;99.90;;;;;;4938046;29;20480;-72
2023/09/09 14:54:03;;;;;;;3.10;2.90;;;28.30;99.90;;;;;;4934993;29;20851;-71
2023/09/09 14:56:30;;;;;;;2.63;2.57;;;28.30;99.90;;;;;;4936399;29;20468;-70
2023/09/09 14:58:58;;;;;;;2.47;2.47;;;28.40;99.90;;;;;;4939770;28;20481;-71
2023/09/09 15:01:25;;;;;;;2.57;2.47;;;28.40;99.90;;;;;;4934300;29;20472;-72
2023/09/09 15:03:52;;;;;;;3.40;3.17;;;28.30;99.90;;;;;;4941815;29;20475;-72
2023/09/09 15:06:18;;;;;;;2.93;2.83;;;28.30;99.90;;;;;;4936664;29;20471;-72
2023/09/09 15:08:45;;;;;;;2.60;2.60;;;28.40;99.90;;;;;;4937727;29;20493;-72
2023/09/09 15:11:12;;;;;;;3.00;2.90;;;28.30;99.90;;;;;;4937375;29;20473;-72
2023/09/09 15:13:38;;;;;;;3.07;3.00;;;28.30;99.90;;;;;;4940913;29;20480;-71
2023/09/09 15:16:08;;;;;;;2.30;2.30;;;28.30;99.90;;;;;;4936883;29;20469;-71
2023/09/09 15:18:36;;;;;;;3.20;3.10;;;28.30;99.90;;;;;;4939263;29;20868;-72
2023/09/09 15:21:03;;;;;;;3.33;3.23;;;28.30;99.90;;;;;;4937083;29;20473;-72
2023/09/09 15:23:30;;;;;;;2.63;2.53;;;28.20;99.90;;;;;;4940423;29;20495;-73
2023/09/09 15:25:56;;;;;;;2.67;2.57;;;28.30;99.90;;;;;;4937097;29;20477;-71
2023/09/09 15:28:23;;;;;;;2.77;2.73;;;28.20;99.90;;;;;;4935989;29;20556;-71
2023/09/09 15:30:54;;;;;;;2.90;2.80;;;28.30;99.90;;;;;;4937010;28;20485;-72
2023/09/09 15:33:23;;;;;;;3.17;3.07;;;28.20;99.90;;;;;;4936937;29;20829;-72
2023/09/09 15:35:56;;;;;;;2.87;2.77;;;28.30;99.90;;;;;;4936194;29;20478;-72
2023/09/09 15:38:23;;;;;;;3.17;2.97;;;28.30;99.90;;;;;;4950571;28;20496;-72
2023/09/09 15:40:50;;;;;;;2.93;2.83;;;28.20;99.90;;;;;;4938111;29;20470;-72
2023/09/09 15:43:16;;;;;;;3.20;3.10;;;28.20;99.90;;;;;;4935053;29;20493;-72
2023/09/09 15:45:43;;;;;;;2.60;2.50;;;28.20;99.90;;;;;;4932188;29;20481;-72
2023/09/09 15:48:11;;;;;;;2.73;2.63;;;28.20;99.90;;;;;;4946222;29;20473;-72
2023/09/09 15:50:40;;;;;;;3.20;3.20;;;28.10;99.90;;;;;;4940073;29;20485;-72
2023/09/09 15:53:07;;;;;;;3.30;3.20;;;28.10;99.90;;;;;;4935541;29;20472;-72
2023/09/09 15:55:33;;;;;;;2.77;2.70;;;28.10;99.90;;;;;;4933958;29;20497;-71
2023/09/09 15:58:00;;;;;;;2.37;2.33;;;28.10;99.90;;;;;;4936057;29;20473;-74
2023/09/09 16:00:27;;;;;;;2.30;2.20;;;28.00;99.90;;;;;;4940029;28;20477;-72
2023/09/09 16:02:53;;;;;;;2.83;2.77;;;28.00;99.90;;;;;;4934858;29;20470;-72
2023/09/09 16:05:20;;;;;;;3.43;3.13;;;28.00;99.90;;;;;;4938730;29;20477;-71
2023/09/09 16:07:48;;;;;;;3.00;2.90;;;28.00;99.90;;;;;;4935948;28;20476;-71
2023/09/09 16:10:15;;;;;;;3.97;3.77;;;28.00;99.90;;;;;;4938524;29;20921;-72
2023/09/09 16:12:41;;;;;;;2.70;2.60;;;28.00;99.90;;;;;;4939551;29;20473;-72
2023/09/09 16:15:09;;;;;;;3.20;3.10;;;28.00;99.90;;;;;;4941841;29;20480;-72
2023/09/09 16:17:36;;;;;;;3.07;2.97;;;27.90;99.90;;;;;;4935307;29;20850;-72
2023/09/09 16:20:02;;;;;;;2.83;2.70;;;27.90;99.90;;;;;;4940631;29;20516;-73
2023/09/09 16:22:29;;;;;;;2.80;2.70;;;27.90;99.90;;;;;;4940587;28;20794;-72
2023/09/09 16:24:57;;;;;;;3.07;2.97;;;27.80;99.90;;;;;;4939333;29;20477;-71
2023/09/09 16:27:24;;;;;;;2.87;2.87;;;27.80;99.90;;;;;;4939192;29;20512;-71
2023/09/09 16:29:51;;;;;;;3.47;3.27;;;27.80;99.90;;;;;;4935187;29;20500;-72
2023/09/09 16:32:17;;;;;;;3.53;3.23;;;27.70;99.90;;;;;;4939066;29;20480;-70
2023/09/09 16:34:44;;;;;;;3.30;3.20;;;27.70;99.90;;;;;;4941360;29;20472;-70
2023/09/09 16:37:11;;;;;;;3.20;3.10;;;27.60;99.90;;;;;;4938061;29;20962;-70
2023/09/09 16:39:37;;;;;;;3.20;3.10;;;27.60;99.90;;;;;;4937406;29;20512;-70
2023/09/09 16:42:06;;;;;;;3.30;3.10;;;27.50;99.90;;;;;;4944098;29;20473;-70
2023/09/09 16:44:33;;;;;;;3.80;3.70;;;27.40;99.90;;;;;;4933415;29;20469;-70
2023/09/09 16:47:00;;;;;;;3.23;3.13;;;27.40;99.90;;;;;;4928101;28;20480;-70
2023/09/09 16:49:27;;;;;;;3.80;3.50;;;27.30;99.90;;;;;;4930075;29;20513;-70
2023/09/09 16:51:54;;;;;;;4.00;3.70;;;27.20;99.90;;;;;;4935775;29;20466;-70